createdAt,value
2023-02-11T00:01:28.834Z,89.76
2023-02-11T00:03:59.173Z,89.78
2023-02-11T00:06:29.081Z,89.80
2023-02-11T00:08:58.572Z,89.73
2023-02-11T00:11:30.280Z,89.64
2023-02-11T00:13:58.445Z,89.51
2023-02-11T00:16:26.877Z,89.37
2023-02-11T00:18:54.910Z,89.59
2023-02-11T00:21:24.552Z,89.83
2023-02-11T00:23:52.845Z,89.73
2023-02-11T00:26:23.917Z,89.60
2023-02-11T00:28:53.364Z,89.72
2023-02-11T00:31:22.678Z,89.64
2023-02-11T00:33:51.135Z,89.77
2023-02-11T00:36:20.952Z,90.01
2023-02-11T00:38:49.943Z,89.96
2023-02-11T00:41:18.526Z,89.93
2023-02-11T00:43:47.687Z,89.70
2023-02-11T00:46:16.111Z,89.86
2023-02-11T00:48:44.702Z,89.89
2023-02-11T00:51:13.034Z,89.95
2023-02-11T00:53:41.020Z,90.17
2023-02-11T00:56:08.998Z,89.95
2023-02-11T00:58:36.833Z,90.20
2023-02-11T01:01:06.448Z,89.97
2023-02-11T01:03:34.684Z,89.89
2023-02-11T01:06:02.601Z,89.78
2023-02-11T01:08:30.447Z,89.79
2023-02-11T01:10:59.544Z,89.75
2023-02-11T01:13:27.823Z,90.15
2023-02-11T01:15:56.207Z,90.42
2023-02-11T01:18:25.886Z,90.55
2023-02-11T01:20:54.373Z,90.56
2023-02-11T01:23:22.563Z,91.10
2023-02-11T01:25:50.994Z,90.92
2023-02-11T01:28:20.289Z,91.21
2023-02-11T01:30:48.573Z,91.18
2023-02-11T01:33:16.620Z,91.42
2023-02-11T01:35:46.094Z,91.28
2023-02-11T01:38:18.402Z,91.11
2023-02-11T01:40:50.278Z,91.14
2023-02-11T01:43:18.339Z,91.14
2023-02-11T01:46:13.867Z,90.89
2023-02-11T01:48:45.259Z,91.01
2023-02-11T01:51:17.969Z,90.96
2023-02-11T01:54:05.337Z,90.92
2023-02-11T01:56:53.656Z,90.92
2023-02-11T01:59:25.458Z,91.05
2023-02-11T02:01:59.868Z,91.52
2023-02-11T02:04:33.562Z,91.46
2023-02-11T02:07:07.443Z,91.28
2023-02-11T02:09:40.672Z,91.16
2023-02-11T02:12:08.810Z,91.08
2023-02-11T02:14:39.999Z,91.14
2023-02-11T02:17:08.543Z,91.08
2023-02-11T02:20:23.448Z,91.00
2023-02-11T02:23:18.408Z,90.87
2023-02-11T02:26:19.860Z,90.61
2023-02-11T02:29:25.189Z,90.42
2023-02-11T02:32:24.307Z,90.08
2023-02-11T02:34:59.321Z,89.76
2023-02-11T02:37:34.319Z,89.84
2023-02-11T02:40:09.028Z,89.62
2023-02-11T02:42:37.703Z,89.39
2023-02-11T02:45:07.770Z,89.22
2023-02-11T02:47:36.970Z,89.25
2023-02-11T02:50:05.981Z,89.25
2023-02-11T02:52:40.828Z,89.03
2023-02-11T02:55:19.970Z,88.92
2023-02-11T02:58:12.908Z,88.94
2023-02-11T03:00:48.823Z,89.60
2023-02-11T03:03:35.886Z,89.79
2023-02-11T03:06:09.104Z,90.36
2023-02-11T03:08:43.336Z,90.49
2023-02-11T03:11:12.639Z,90.77
2023-02-11T03:13:41.826Z,90.70
2023-02-11T03:16:14.561Z,90.88
2023-02-11T03:18:50.570Z,90.76
2023-02-11T03:21:21.208Z,90.99
2023-02-11T03:23:53.680Z,90.98
2023-02-11T03:26:26.724Z,90.68
2023-02-11T03:28:58.871Z,91.03
2023-02-11T03:31:34.537Z,90.91
2023-02-11T03:34:08.720Z,91.12
2023-02-11T03:36:45.996Z,90.87
2023-02-11T03:39:15.702Z,90.72
2023-02-11T03:41:44.861Z,90.94
2023-02-11T03:44:16.360Z,91.08
2023-02-11T03:46:49.149Z,91.03
2023-02-11T03:49:21.488Z,91.16
2023-02-11T03:51:52.761Z,91.28
2023-02-11T03:54:25.347Z,91.69
2023-02-11T03:56:55.924Z,91.56
2023-02-11T03:59:23.760Z,91.32
2023-02-11T04:01:51.551Z,91.22
2023-02-11T04:04:20.616Z,91.14
2023-02-11T04:06:48.427Z,91.15
2023-02-11T04:09:16.233Z,91.17
2023-02-11T04:11:43.964Z,91.48
2023-02-11T04:14:11.787Z,91.71
2023-02-11T04:16:39.590Z,91.83
2023-02-11T04:19:07.373Z,92.08
2023-02-11T04:21:36.531Z,92.29
2023-02-11T04:24:04.526Z,92.24
2023-02-11T04:26:32.271Z,92.14
2023-02-11T04:28:59.922Z,92.15
2023-02-11T04:31:27.739Z,92.10
2023-02-11T04:33:55.513Z,91.94
2023-02-11T04:36:23.352Z,92.20
2023-02-11T04:38:52.368Z,92.47
2023-02-11T04:41:20.117Z,92.48
2023-02-11T04:43:47.846Z,92.64
2023-02-11T04:46:15.632Z,92.69
2023-02-11T04:48:43.463Z,92.59
2023-02-11T04:51:11.234Z,92.68
2023-02-11T04:53:38.990Z,92.59
2023-02-11T04:56:08.241Z,92.58
2023-02-11T04:58:36.055Z,92.41
2023-02-11T05:01:07.998Z,92.34
2023-02-11T05:03:35.812Z,92.18
2023-02-11T05:06:03.567Z,92.37
2023-02-11T05:08:31.449Z,92.10
2023-02-11T05:10:59.298Z,92.30
2023-02-11T05:13:28.480Z,92.47
2023-02-11T05:15:56.256Z,92.50
2023-02-11T05:18:24.304Z,92.47
2023-02-11T05:20:51.990Z,92.96
2023-02-11T05:23:19.701Z,93.11
2023-02-11T05:25:47.411Z,93.25
2023-02-11T05:28:15.210Z,93.67
2023-02-11T05:30:44.349Z,93.72
2023-02-11T05:33:12.141Z,93.96
2023-02-11T05:35:39.840Z,94.06
2023-02-11T05:38:07.590Z,94.02
2023-02-11T05:40:35.301Z,93.98
2023-02-11T05:43:03.082Z,93.93
2023-02-11T05:45:31.789Z,94.12
2023-02-11T05:48:01.038Z,94.28
2023-02-11T05:50:28.818Z,94.17
2023-02-11T05:52:56.549Z,94.07
2023-02-11T05:55:24.506Z,94.03
2023-02-11T05:57:52.236Z,94.18
2023-02-11T06:00:20.382Z,93.97
2023-02-11T06:02:48.118Z,94.04
2023-02-11T06:05:17.384Z,93.91
2023-02-11T06:07:45.144Z,93.96
2023-02-11T06:10:13.555Z,93.94
2023-02-11T06:12:41.518Z,94.01
2023-02-11T06:15:09.500Z,94.11
2023-02-11T06:17:37.412Z,94.12
2023-02-11T06:20:07.255Z,93.99
2023-02-11T06:22:36.347Z,94.11
2023-02-11T06:25:04.188Z,93.81
2023-02-11T06:27:31.924Z,93.81
2023-02-11T06:29:59.611Z,93.65
2023-02-11T06:32:45.636Z,93.45
2023-02-11T06:35:14.322Z,93.58
2023-02-11T06:37:43.920Z,93.28
2023-02-11T06:40:12.659Z,93.09
2023-02-11T06:42:40.487Z,93.17
2023-02-11T06:45:11.148Z,93.37
2023-02-11T06:47:39.163Z,93.55
2023-02-11T06:50:09.224Z,93.06
2023-02-11T06:52:36.973Z,93.00
2023-02-11T06:55:06.594Z,93.22
2023-02-11T06:57:34.371Z,93.24
2023-02-11T07:00:02.534Z,93.26
2023-02-11T07:02:30.525Z,93.32
2023-02-11T07:04:58.502Z,93.41
2023-02-11T07:07:26.280Z,93.60
2023-02-11T07:09:54.111Z,93.80
2023-02-11T07:12:23.194Z,93.82
2023-02-11T07:14:50.990Z,93.61
2023-02-11T07:17:18.711Z,93.60
2023-02-11T07:19:46.497Z,93.21
2023-02-11T07:22:14.253Z,93.22
2023-02-11T07:24:42.136Z,93.13
2023-02-11T07:27:09.883Z,92.77
2023-02-11T07:29:39.109Z,92.60
2023-02-11T07:32:07.263Z,92.32
2023-02-11T07:34:35.315Z,92.13
2023-02-11T07:37:03.211Z,91.82
2023-02-11T07:39:31.106Z,91.66
2023-02-11T07:41:58.886Z,91.48
2023-02-11T07:44:26.688Z,91.29
2023-02-11T07:46:55.766Z,91.02
2023-02-11T07:49:23.480Z,90.86
2023-02-11T07:51:51.495Z,90.70
2023-02-11T07:54:19.308Z,90.61
2023-02-11T07:56:47.079Z,90.56
2023-02-11T07:59:14.851Z,90.34
2023-02-11T08:01:42.586Z,90.28
2023-02-11T08:04:11.827Z,89.93
2023-02-11T08:06:43.617Z,89.79
2023-02-11T08:09:16.538Z,89.54
2023-02-11T08:11:44.442Z,89.31
2023-02-11T08:14:12.833Z,88.95
2023-02-11T08:16:41.258Z,88.54
2023-02-11T08:19:13.598Z,88.04
2023-02-11T08:21:41.825Z,88.10
2023-02-11T08:24:09.995Z,87.56
2023-02-11T08:26:38.935Z,87.27
2023-02-11T08:29:09.407Z,86.82
2023-02-11T08:31:39.743Z,86.48
2023-02-11T08:34:08.005Z,86.61
2023-02-11T08:36:38.890Z,86.29
2023-02-11T08:39:18.483Z,85.96
2023-02-11T08:41:48.871Z,85.58
2023-02-11T08:44:17.039Z,85.55
2023-02-11T08:46:45.207Z,84.63
2023-02-11T08:49:13.113Z,84.10
2023-02-11T08:51:42.336Z,83.46
2023-02-11T08:54:10.546Z,82.91
2023-02-11T08:56:39.043Z,81.79
2023-02-11T08:59:09.268Z,80.36
2023-02-11T09:01:37.442Z,79.49
2023-02-11T09:04:05.466Z,77.98
2023-02-11T09:06:33.520Z,77.01
2023-02-11T09:09:02.832Z,76.35
2023-02-11T09:11:33.447Z,76.04
2023-02-11T09:14:01.970Z,75.14
2023-02-11T09:16:33.664Z,74.03
2023-02-11T09:19:03.177Z,73.41
2023-02-11T09:21:31.714Z,72.69
2023-02-11T09:23:59.838Z,72.16
2023-02-11T09:26:31.515Z,70.77
2023-02-11T09:28:59.807Z,70.20
2023-02-11T09:31:29.396Z,69.50
2023-02-11T09:33:59.910Z,70.16
2023-02-11T09:36:30.433Z,69.26
2023-02-11T09:39:00.692Z,69.20
2023-02-11T09:41:46.532Z,68.91
2023-02-11T09:44:21.034Z,69.73
2023-02-11T09:46:55.814Z,70.14
2023-02-11T09:49:32.491Z,70.82
2023-02-11T09:52:05.759Z,70.16
2023-02-11T09:54:40.628Z,70.06
2023-02-11T09:57:26.449Z,69.28
2023-02-11T09:59:56.396Z,70.20
2023-02-11T10:02:29.373Z,71.27
2023-02-11T10:05:11.291Z,71.70
2023-02-11T10:07:46.429Z,71.89
2023-02-11T10:10:35.017Z,72.24
2023-02-11T10:13:21.015Z,72.46
2023-02-11T10:15:57.234Z,72.47
2023-02-11T10:18:46.492Z,72.19
2023-02-11T10:21:21.163Z,72.06
2023-02-11T10:23:53.962Z,72.05
2023-02-11T10:26:22.365Z,71.92
2023-02-11T10:28:55.508Z,71.80
2023-02-11T10:31:27.221Z,72.66
2023-02-11T10:34:00.727Z,72.32
2023-02-11T10:36:31.030Z,72.33
2023-02-11T10:39:00.724Z,72.02
2023-02-11T10:41:34.974Z,71.87
2023-02-11T10:44:07.878Z,71.52
2023-02-11T10:46:38.077Z,71.65
2023-02-11T10:49:05.805Z,71.38
2023-02-11T10:51:35.183Z,71.10
2023-02-11T10:54:19.462Z,70.31
2023-02-11T10:56:52.223Z,69.77
2023-02-11T10:59:28.459Z,69.03
2023-02-11T11:02:00.708Z,68.84
2023-02-11T11:04:38.256Z,68.42
2023-02-11T11:07:16.921Z,67.24
2023-02-11T11:09:48.465Z,66.71
2023-02-11T11:12:31.992Z,66.29
2023-02-11T11:15:03.802Z,67.14
2023-02-11T11:17:31.856Z,67.04
2023-02-11T11:20:20.285Z,66.60
2023-02-11T11:22:49.289Z,66.74
2023-02-11T11:25:25.771Z,66.61
2023-02-11T11:27:57.058Z,66.12
2023-02-11T11:30:32.406Z,66.46
2023-02-11T11:33:01.964Z,65.78
2023-02-11T11:35:33.023Z,64.83
2023-02-11T11:38:03.351Z,63.85
2023-02-11T11:40:32.677Z,63.67
2023-02-11T11:43:20.253Z,63.48
2023-02-11T11:45:59.265Z,62.70
2023-02-11T11:48:32.583Z,63.11
2023-02-11T11:51:03.188Z,62.38
2023-02-11T11:53:39.082Z,62.38
2023-02-11T11:56:11.813Z,61.96
2023-02-11T11:58:39.530Z,61.60
2023-02-11T12:01:23.347Z,62.03
2023-02-11T12:04:19.673Z,62.21
2023-02-11T12:06:57.575Z,62.15
2023-02-11T12:09:37.016Z,62.54
2023-02-11T12:12:29.328Z,62.20
2023-02-11T12:15:11.362Z,62.91
2023-02-11T12:17:56.638Z,62.68
2023-02-11T12:20:33.904Z,63.69
2023-02-11T12:23:16.057Z,63.34
2023-02-11T12:25:52.508Z,63.41
2023-02-11T12:28:32.944Z,64.00
2023-02-11T12:31:16.746Z,63.54
2023-02-11T12:34:06.249Z,64.48
2023-02-11T12:36:48.974Z,65.29
2023-02-11T12:39:32.647Z,65.33
2023-02-11T12:42:42.620Z,65.37
2023-02-11T12:45:22.918Z,66.71
2023-02-11T12:48:04.704Z,66.88
2023-02-11T12:50:46.154Z,67.62
2023-02-11T12:53:31.875Z,68.43
2023-02-11T12:56:05.034Z,69.97
2023-02-11T12:58:44.976Z,69.41
2023-02-11T13:01:20.227Z,69.50
2023-02-11T13:03:53.992Z,69.82
2023-02-11T13:06:30.276Z,70.81
2023-02-11T13:09:02.193Z,71.15
2023-02-11T13:11:34.164Z,71.67
2023-02-11T13:14:05.146Z,71.46
2023-02-11T13:16:39.297Z,70.75
2023-02-11T13:19:19.482Z,71.73
2023-02-11T13:22:04.458Z,72.44
2023-02-11T13:24:44.294Z,72.37
2023-02-11T13:27:26.433Z,72.24
2023-02-11T13:30:21.435Z,72.71
2023-02-11T13:33:20.547Z,73.38
2023-02-11T13:36:13.186Z,73.68
2023-02-11T13:38:51.811Z,73.94
2023-02-11T13:41:24.738Z,74.03
2023-02-11T13:44:00.173Z,74.75
2023-02-11T13:46:30.739Z,75.14
2023-02-11T13:48:59.439Z,75.37
2023-02-11T13:51:38.879Z,75.08
2023-02-11T13:54:09.562Z,75.00
2023-02-11T13:56:39.742Z,75.84
2023-02-11T13:59:42.345Z,75.91
2023-02-11T14:02:42.537Z,76.20
2023-02-11T14:05:48.792Z,76.91
2023-02-11T14:08:43.695Z,77.47
2023-02-11T14:11:52.409Z,78.07
2023-02-11T14:14:25.913Z,78.49
2023-02-11T14:17:30.938Z,78.71
2023-02-11T14:19:59.917Z,78.70
2023-02-11T14:22:30.283Z,78.81
2023-02-11T14:25:00.856Z,79.00
2023-02-11T14:27:43.341Z,79.03
2023-02-11T14:30:27.370Z,79.67
2023-02-11T14:33:18.079Z,79.19
2023-02-11T14:36:00.596Z,79.19
2023-02-11T14:38:36.939Z,79.73
2023-02-11T14:41:09.056Z,79.97
2023-02-11T14:43:43.044Z,80.19
2023-02-11T14:46:11.150Z,80.04
2023-02-11T14:48:44.608Z,80.52
2023-02-11T14:51:16.011Z,80.23
2023-02-11T14:53:47.504Z,80.24
2023-02-11T14:56:22.375Z,80.24
2023-02-11T14:58:52.977Z,80.07
2023-02-11T15:01:30.843Z,80.57
2023-02-11T15:03:59.469Z,80.56
2023-02-11T15:06:31.555Z,80.28
2023-02-11T15:09:02.099Z,80.16
2023-02-11T15:11:32.891Z,79.85
2023-02-11T15:14:09.556Z,80.54
2023-02-11T15:16:43.389Z,80.43
2023-02-11T15:19:21.137Z,80.72
2023-02-11T15:21:51.780Z,80.65
2023-02-11T15:24:25.284Z,80.44
2023-02-11T15:27:00.952Z,80.52
2023-02-11T15:29:37.384Z,80.30
2023-02-11T15:32:07.388Z,80.45
2023-02-11T15:34:35.969Z,80.41
2023-02-11T15:37:04.507Z,80.54
2023-02-11T15:39:35.576Z,80.37
2023-02-11T15:42:21.180Z,79.90
2023-02-11T15:44:56.592Z,79.99
2023-02-11T15:47:30.895Z,79.87
2023-02-11T15:49:59.165Z,79.72
2023-02-11T15:52:28.984Z,79.44
2023-02-11T15:55:00.708Z,79.94
2023-02-11T15:57:29.321Z,79.75
2023-02-11T16:00:04.570Z,79.53
2023-02-11T16:02:34.423Z,79.47
2023-02-11T16:05:05.613Z,79.64
2023-02-11T16:07:44.842Z,79.32
2023-02-11T16:10:25.631Z,79.37
2023-02-11T16:13:18.247Z,79.49
2023-02-11T16:15:55.505Z,79.76
2023-02-11T16:18:38.864Z,79.66
2023-02-11T16:21:14.425Z,79.62
2023-02-11T16:23:43.430Z,79.55
2023-02-11T16:26:22.047Z,79.77
2023-02-11T16:28:50.263Z,79.80
2023-02-11T16:31:20.045Z,79.84
2023-02-11T16:33:47.885Z,79.92
2023-02-11T16:36:18.105Z,79.85
2023-02-11T16:38:45.998Z,80.05
2023-02-11T16:41:14.319Z,80.19
2023-02-11T16:43:42.056Z,80.96
2023-02-11T16:46:13.848Z,81.46
2023-02-11T16:48:43.216Z,81.55
2023-02-11T16:51:13.171Z,81.59
2023-02-11T16:53:41.155Z,81.60
2023-02-11T16:56:15.095Z,81.47
2023-02-11T16:58:42.853Z,81.62
2023-02-11T17:01:13.750Z,81.43
2023-02-11T17:03:43.768Z,81.59
2023-02-11T17:06:13.575Z,81.52
2023-02-11T17:08:42.031Z,81.73
2023-02-11T17:11:09.815Z,81.47
2023-02-11T17:13:39.440Z,81.58
2023-02-11T17:16:07.218Z,81.49
2023-02-11T17:18:36.003Z,81.62
2023-02-11T17:21:07.481Z,81.63
2023-02-11T17:23:35.158Z,81.38
2023-02-11T17:26:02.947Z,81.60
2023-02-11T17:28:30.741Z,81.77
2023-02-11T17:30:58.523Z,81.79
2023-02-11T17:33:26.434Z,81.87
2023-02-11T17:35:54.514Z,81.94
2023-02-11T17:38:23.964Z,82.24
2023-02-11T17:40:58.738Z,82.54
2023-02-11T17:43:26.552Z,82.44
2023-02-11T17:45:54.762Z,82.78
2023-02-11T17:48:22.760Z,82.60
2023-02-11T17:50:50.521Z,82.90
2023-02-11T17:53:18.392Z,82.99
2023-02-11T17:55:47.455Z,83.02
2023-02-11T17:58:15.230Z,83.46
2023-02-11T18:00:43.405Z,83.76
2023-02-11T18:03:11.174Z,83.52
2023-02-11T18:05:39.524Z,84.01
2023-02-11T18:08:08.619Z,84.77
2023-02-11T18:10:36.394Z,84.94
2023-02-11T18:13:05.823Z,85.42
2023-02-11T18:15:34.704Z,85.99
2023-02-11T18:18:02.483Z,86.73
2023-02-11T18:20:30.379Z,86.85
2023-02-11T18:22:58.121Z,86.64
2023-02-11T18:25:25.908Z,87.27
2023-02-11T18:27:53.666Z,86.75
2023-02-11T18:30:24.194Z,86.77
2023-02-11T18:32:54.834Z,86.94
2023-02-11T18:35:22.920Z,86.99
2023-02-11T18:37:50.961Z,86.75
2023-02-11T18:40:19.070Z,86.78
2023-02-11T18:42:47.482Z,86.68
2023-02-11T18:45:15.972Z,86.97
2023-02-11T18:47:45.205Z,87.03
2023-02-11T18:50:15.542Z,87.51
2023-02-11T18:52:43.759Z,87.49
2023-02-11T18:55:11.586Z,87.62
2023-02-11T18:57:39.594Z,88.04
2023-02-11T19:00:10.000Z,88.33
2023-02-11T19:02:37.956Z,88.67
2023-02-11T19:05:07.808Z,88.24
2023-02-11T19:07:35.519Z,89.02
2023-02-11T19:10:03.460Z,88.86
2023-02-11T19:12:33.135Z,89.08
2023-02-11T19:15:01.554Z,89.10
2023-02-11T19:17:29.325Z,89.27
2023-02-11T19:19:57.177Z,89.39
2023-02-11T19:22:26.362Z,89.61
2023-02-11T19:24:54.206Z,89.65
2023-02-11T19:27:21.927Z,89.70
2023-02-11T19:29:49.691Z,89.32
2023-02-11T19:32:17.677Z,89.17
2023-02-11T19:34:45.407Z,88.70
2023-02-11T19:37:13.906Z,88.87
2023-02-11T19:39:43.933Z,88.80
2023-02-11T19:42:12.112Z,88.83
2023-02-11T19:44:40.093Z,88.53
2023-02-11T19:47:07.988Z,89.17
2023-02-11T19:49:35.696Z,89.39
2023-02-11T19:52:03.574Z,89.06
2023-02-11T19:54:31.417Z,88.86
2023-02-11T19:57:00.657Z,88.83
2023-02-11T19:59:28.455Z,88.85
2023-02-11T20:01:57.582Z,89.14
2023-02-11T20:04:25.744Z,89.48
2023-02-11T20:06:53.554Z,89.39
2023-02-11T20:09:21.731Z,89.60
2023-02-11T20:11:50.094Z,89.56
2023-02-11T20:14:19.356Z,89.51
2023-02-11T20:16:49.829Z,89.58
2023-02-11T20:19:19.990Z,89.73
2023-02-11T20:21:48.922Z,89.73
2023-02-11T20:24:17.413Z,89.84
2023-02-11T20:26:46.947Z,90.29
2023-02-11T20:29:15.283Z,89.79
2023-02-11T20:31:44.603Z,89.82
2023-02-11T20:34:12.985Z,90.18
2023-02-11T20:36:41.158Z,90.08
2023-02-11T20:39:08.961Z,90.57
2023-02-11T20:41:40.031Z,90.50
2023-02-11T20:44:11.059Z,90.97
2023-02-11T20:46:40.852Z,91.35
2023-02-11T20:49:12.255Z,91.40
2023-02-11T20:51:40.639Z,90.88
2023-02-11T20:54:12.510Z,90.89
2023-02-11T20:56:40.760Z,91.33
2023-02-11T20:59:08.920Z,91.16
2023-02-11T21:01:40.280Z,90.78
2023-02-11T21:04:12.857Z,91.02
2023-02-11T21:06:43.990Z,91.23
2023-02-11T21:09:14.239Z,90.45
2023-02-11T21:11:42.162Z,91.15
2023-02-11T21:14:10.223Z,91.50
2023-02-11T21:16:38.333Z,91.29
2023-02-11T21:19:07.051Z,91.34
2023-02-11T21:21:38.626Z,91.22
2023-02-11T21:24:07.628Z,91.56
2023-02-11T21:26:36.359Z,91.99
2023-02-11T21:29:04.655Z,91.88
2023-02-11T21:31:34.465Z,92.10
2023-02-11T21:34:02.412Z,91.94
2023-02-11T21:36:30.610Z,92.24
2023-02-11T21:39:01.746Z,92.58
2023-02-11T21:41:30.036Z,92.51
2023-02-11T21:43:58.148Z,92.48
2023-02-11T21:46:26.145Z,92.38
2023-02-11T21:48:54.541Z,92.39
2023-02-11T21:51:24.624Z,92.13
2023-02-11T21:53:54.906Z,92.16
2023-02-11T21:56:26.370Z,92.04
2023-02-11T21:58:56.087Z,91.85
2023-02-11T22:01:26.986Z,92.13
2023-02-11T22:03:54.782Z,92.03
2023-02-11T22:06:27.081Z,92.17
2023-02-11T22:08:55.911Z,92.33
2023-02-11T22:11:25.358Z,92.25
2023-02-11T22:13:54.752Z,92.19
2023-02-11T22:16:23.072Z,92.13
2023-02-11T22:18:51.478Z,92.17
2023-02-11T22:21:22.315Z,91.90
2023-02-11T22:23:51.454Z,91.68
2023-02-11T22:26:21.872Z,92.01
2023-02-11T22:28:52.162Z,92.28
2023-02-11T22:31:22.796Z,92.51
2023-02-11T22:33:51.149Z,92.91
2023-02-11T22:36:21.470Z,93.08
2023-02-11T22:38:49.231Z,93.23
2023-02-11T22:41:18.006Z,93.45
2023-02-11T22:43:46.184Z,93.45
2023-02-11T22:46:17.822Z,93.68
2023-02-11T22:48:45.979Z,93.75
2023-02-11T22:51:16.217Z,93.85
2023-02-11T22:53:44.548Z,93.79
2023-02-11T22:56:15.825Z,93.68
2023-02-11T22:58:44.120Z,93.74
2023-02-11T23:01:12.608Z,93.64
2023-02-11T23:03:42.200Z,93.53
2023-02-11T23:06:12.639Z,93.52
2023-02-11T23:08:42.849Z,93.57
2023-02-11T23:11:13.437Z,93.67
2023-02-11T23:13:42.545Z,93.61
2023-02-11T23:16:12.548Z,93.42
2023-02-11T23:18:43.259Z,93.38
2023-02-11T23:21:13.676Z,93.26
2023-02-11T23:23:41.459Z,93.82
2023-02-11T23:26:11.332Z,93.78
2023-02-11T23:28:39.306Z,93.82
2023-02-11T23:31:14.963Z,93.82
2023-02-11T23:33:44.124Z,94.10
2023-02-11T23:36:12.283Z,93.99
2023-02-11T23:38:40.337Z,94.18
2023-02-11T23:41:08.490Z,94.49
2023-02-11T23:43:36.414Z,94.55
2023-02-11T23:46:04.683Z,94.36
2023-02-11T23:48:32.421Z,94.44
2023-02-11T23:51:01.515Z,94.46
2023-02-11T23:53:29.322Z,94.95
2023-02-11T23:55:57.184Z,94.85
2023-02-11T23:58:25.205Z,94.91
